createdAt,value
2022-09-26T00:01:37.662Z,25.20
2022-09-26T00:04:12.560Z,24.80
2022-09-26T00:06:39.446Z,25.30
2022-09-26T00:09:06.413Z,25.20
2022-09-26T00:11:34.898Z,25.20
2022-09-26T00:14:07.138Z,25.20
2022-09-26T00:16:35.255Z,25.20
2022-09-26T00:19:03.185Z,25.30
2022-09-26T00:21:31.020Z,25.20
2022-09-26T00:24:00.574Z,25.20
2022-09-26T00:26:30.279Z,25.20
2022-09-26T00:28:58.516Z,25.20
2022-09-26T00:31:29.975Z,25.20
2022-09-26T00:33:58.046Z,25.20
2022-09-26T00:36:36.937Z,25.20
2022-09-26T00:39:07.583Z,25.20
2022-09-26T00:41:37.654Z,25.20
2022-09-26T00:44:50.740Z,25.20
2022-09-26T00:47:37.303Z,25.20
2022-09-26T00:50:20.032Z,25.20
2022-09-26T00:53:02.718Z,25.20
2022-09-26T00:55:36.301Z,25.20
2022-09-26T00:58:19.170Z,25.20
2022-09-26T01:00:49.388Z,25.20
2022-09-26T01:03:19.780Z,25.20
2022-09-26T01:05:47.546Z,25.10
2022-09-26T01:08:20.592Z,25.10
2022-09-26T01:10:47.532Z,25.10
2022-09-26T01:13:14.839Z,25.10
2022-09-26T01:15:41.721Z,25.10
2022-09-26T01:18:08.755Z,25.10
2022-09-26T01:21:32.630Z,25.10
2022-09-26T01:24:50.599Z,25.10
2022-09-26T01:28:15.790Z,25.10
2022-09-26T01:31:11.979Z,25.20
2022-09-26T01:34:11.778Z,25.10
2022-09-26T01:37:03.190Z,25.10
2022-09-26T01:39:49.324Z,25.10
2022-09-26T01:42:29.674Z,25.10
2022-09-26T01:45:21.990Z,25.10
2022-09-26T01:48:05.334Z,25.10
2022-09-26T01:50:43.787Z,25.10
2022-09-26T01:53:27.777Z,25.10
2022-09-26T01:56:17.705Z,25.10
2022-09-26T01:58:57.199Z,25.10
2022-09-26T02:01:29.252Z,25.10
2022-09-26T02:04:08.635Z,25.10
2022-09-26T02:06:50.713Z,25.10
2022-09-26T02:09:35.106Z,25.10
2022-09-26T02:12:07.124Z,25.10
2022-09-26T02:14:39.563Z,25.10
2022-09-26T02:17:14.693Z,25.10
2022-09-26T02:20:00.659Z,25.10
2022-09-26T02:22:32.928Z,25.00
2022-09-26T02:25:00.855Z,25.00
2022-09-26T02:27:28.617Z,25.00
2022-09-26T02:29:56.266Z,25.00
2022-09-26T02:32:30.504Z,25.00
2022-09-26T02:34:59.634Z,25.00
2022-09-26T02:37:28.854Z,25.00
2022-09-26T02:39:56.908Z,25.00
2022-09-26T02:42:41.230Z,25.00
2022-09-26T02:45:29.709Z,25.30
2022-09-26T02:48:37.808Z,25.00
2022-09-26T02:52:16.186Z,25.00
2022-09-26T02:54:57.588Z,25.00
2022-09-26T02:57:40.987Z,25.00
2022-09-26T03:00:25.011Z,25.00
2022-09-26T03:03:22.825Z,25.00
2022-09-26T03:05:54.889Z,25.00
2022-09-26T03:08:29.345Z,25.00
2022-09-26T03:11:02.400Z,25.00
2022-09-26T03:13:35.290Z,24.90
2022-09-26T03:16:03.194Z,24.90
2022-09-26T03:18:38.571Z,25.00
2022-09-26T03:21:05.674Z,25.00
2022-09-26T03:23:33.093Z,24.90
2022-09-26T03:26:10.438Z,24.90
2022-09-26T03:28:38.293Z,26.10
2022-09-26T03:31:05.779Z,25.00
2022-09-26T03:33:32.711Z,25.00
2022-09-26T03:36:00.475Z,24.90
2022-09-26T03:38:28.075Z,24.90
2022-09-26T03:40:58.559Z,24.90
2022-09-26T03:43:25.679Z,24.90
2022-09-26T03:45:52.630Z,25.00
2022-09-26T03:48:19.476Z,24.90
2022-09-26T03:50:46.306Z,24.90
2022-09-26T03:53:13.521Z,24.90
2022-09-26T03:55:40.685Z,24.90
2022-09-26T03:58:07.535Z,24.80
2022-09-26T04:00:34.821Z,24.90
2022-09-26T04:03:05.753Z,24.90
2022-09-26T04:05:32.612Z,24.90
2022-09-26T04:08:00.595Z,24.90
2022-09-26T04:10:28.014Z,24.80
2022-09-26T04:12:55.334Z,24.90
2022-09-26T04:15:22.228Z,24.90
2022-09-26T04:17:49.056Z,24.90
2022-09-26T04:20:15.996Z,24.90
2022-09-26T04:22:42.841Z,24.90
2022-09-26T04:25:12.343Z,24.90
2022-09-26T04:27:39.312Z,24.90
2022-09-26T04:30:08.168Z,24.90
2022-09-26T04:32:35.101Z,24.90
2022-09-26T04:35:01.970Z,24.90
2022-09-26T04:37:28.856Z,24.80
2022-09-26T04:39:56.571Z,24.80
2022-09-26T04:42:25.178Z,24.90
2022-09-26T04:44:54.931Z,24.90
2022-09-26T04:47:21.824Z,24.90
2022-09-26T04:49:48.668Z,24.90
2022-09-26T04:52:18.436Z,24.80
2022-09-26T04:54:45.289Z,24.80
2022-09-26T04:57:19.347Z,24.80
2022-09-26T04:59:46.867Z,24.80
2022-09-26T05:02:14.141Z,24.80
2022-09-26T05:04:41.044Z,24.90
2022-09-26T05:07:07.882Z,24.80
2022-09-26T05:09:36.259Z,24.80
2022-09-26T05:12:03.623Z,24.80
2022-09-26T05:14:30.520Z,24.80
2022-09-26T05:16:57.504Z,24.80
2022-09-26T05:19:24.472Z,24.80
2022-09-26T05:21:51.296Z,24.80
2022-09-26T05:24:36.633Z,24.80
2022-09-26T05:27:07.337Z,24.80
2022-09-26T05:29:34.888Z,24.80
2022-09-26T05:32:02.071Z,24.80
2022-09-26T05:34:28.927Z,24.90
2022-09-26T05:36:56.555Z,24.80
2022-09-26T05:39:42.721Z,24.80
2022-09-26T05:42:10.005Z,24.80
2022-09-26T05:44:37.666Z,24.80
2022-09-26T05:47:04.855Z,24.80
2022-09-26T05:49:35.951Z,24.80
2022-09-26T05:52:03.987Z,24.80
2022-09-26T05:54:31.089Z,24.80
2022-09-26T05:56:58.005Z,24.90
2022-09-26T05:59:25.003Z,24.80
2022-09-26T06:01:52.351Z,24.80
2022-09-26T06:04:19.752Z,24.80
2022-09-26T06:06:51.072Z,24.90
2022-09-26T06:09:18.216Z,25.00
2022-09-26T06:11:45.624Z,25.00
2022-09-26T06:14:12.603Z,25.10
2022-09-26T06:16:40.257Z,25.10
2022-09-26T06:19:07.374Z,25.20
2022-09-26T06:21:34.446Z,25.20
2022-09-26T06:24:01.622Z,25.30
2022-09-26T06:26:29.003Z,25.30
2022-09-26T06:29:00.318Z,25.40
2022-09-26T06:31:30.039Z,25.40
2022-09-26T06:33:58.459Z,25.50
2022-09-26T06:36:25.782Z,25.60
2022-09-26T06:38:55.941Z,25.60
2022-09-26T06:41:24.669Z,25.80
2022-09-26T06:43:51.643Z,25.80
2022-09-26T06:46:18.817Z,25.80
2022-09-26T06:48:46.627Z,25.80
2022-09-26T06:51:15.915Z,25.90
2022-09-26T06:53:46.014Z,26.00
2022-09-26T06:56:13.418Z,26.00
2022-09-26T06:58:40.609Z,26.00
2022-09-26T07:01:08.338Z,26.10
2022-09-26T07:03:35.927Z,26.10
2022-09-26T07:06:03.482Z,26.20
2022-09-26T07:09:00.451Z,26.20
2022-09-26T07:11:56.161Z,26.20
2022-09-26T07:14:06.968Z,26.20
2022-09-26T07:16:33.926Z,26.20
2022-09-26T07:19:01.051Z,26.30
2022-09-26T07:21:31.703Z,26.30
2022-09-26T07:23:58.614Z,26.30
2022-09-26T07:26:28.741Z,26.40
2022-09-26T07:28:55.685Z,26.40
2022-09-26T07:31:23.749Z,26.40
2022-09-26T07:33:50.975Z,26.40
2022-09-26T07:36:18.463Z,26.30
2022-09-26T07:38:48.627Z,26.40
2022-09-26T07:41:16.191Z,26.40
2022-09-26T07:44:34.583Z,26.40
2022-09-26T07:46:48.892Z,26.40
2022-09-26T07:49:34.082Z,26.40
2022-09-26T07:52:01.221Z,26.40
2022-09-26T07:54:30.057Z,26.40
2022-09-26T07:56:57.111Z,26.40
2022-09-26T07:59:24.066Z,26.40
2022-09-26T08:01:54.568Z,26.40
2022-09-26T08:04:24.603Z,26.40
2022-09-26T08:06:53.041Z,26.40
2022-09-26T08:09:20.055Z,26.40
2022-09-26T08:11:47.308Z,26.30
2022-09-26T08:14:14.992Z,26.40
2022-09-26T08:16:42.034Z,26.40
2022-09-26T08:19:12.923Z,26.30
2022-09-26T08:21:40.217Z,26.40
2022-09-26T08:24:07.267Z,26.30
2022-09-26T08:26:34.160Z,26.30
2022-09-26T08:29:03.757Z,26.30
2022-09-26T08:31:31.880Z,26.30
2022-09-26T08:33:58.782Z,26.30
2022-09-26T08:36:27.137Z,26.30
2022-09-26T08:38:55.101Z,26.30
2022-09-26T08:41:32.625Z,26.30
2022-09-26T08:44:42.204Z,26.30
2022-09-26T08:47:32.630Z,26.40
2022-09-26T08:50:18.307Z,26.40
2022-09-26T08:53:00.382Z,26.40
2022-09-26T08:55:34.020Z,26.30
2022-09-26T08:58:19.235Z,26.30
2022-09-26T09:00:51.787Z,26.30
2022-09-26T09:03:54.713Z,26.30
2022-09-26T09:06:21.599Z,26.40
2022-09-26T09:08:55.312Z,26.30
2022-09-26T09:11:52.406Z,26.30
2022-09-26T09:15:07.717Z,26.40
2022-09-26T09:18:29.366Z,26.40
2022-09-26T09:21:24.381Z,26.40
2022-09-26T09:24:19.315Z,26.40
2022-09-26T09:30:22.218Z,26.20
2022-09-26T09:33:28.391Z,26.20
2022-09-26T09:36:33.943Z,26.40
2022-09-26T09:39:07.473Z,26.40
2022-09-26T09:41:50.584Z,26.40
2022-09-26T09:45:06.649Z,26.50
2022-09-26T09:47:39.592Z,26.40
2022-09-26T09:50:36.335Z,26.50
2022-09-26T09:53:51.679Z,26.40
2022-09-26T09:56:56.992Z,26.50
2022-09-26T09:59:47.886Z,26.50
2022-09-26T10:02:36.927Z,26.40
2022-09-26T10:05:35.349Z,26.40
2022-09-26T10:08:04.908Z,26.40
2022-09-26T10:11:13.786Z,26.40
2022-09-26T10:13:43.772Z,26.50
2022-09-26T10:16:15.249Z,26.50
2022-09-26T10:19:06.105Z,26.40
2022-09-26T10:21:41.085Z,26.50
2022-09-26T10:24:40.948Z,26.50
2022-09-26T10:27:25.400Z,26.50
2022-09-26T10:30:01.023Z,26.50
2022-09-26T10:32:29.328Z,26.50
2022-09-26T10:35:20.001Z,26.50
2022-09-26T10:38:01.124Z,26.50
2022-09-26T10:40:53.109Z,26.50
2022-09-26T10:43:35.188Z,26.50
2022-09-26T10:46:16.223Z,26.50
2022-09-26T10:48:55.355Z,26.50
2022-09-26T10:51:44.911Z,26.20
2022-09-26T10:54:32.871Z,26.50
2022-09-26T10:57:00.884Z,26.50
2022-09-26T10:59:36.128Z,26.50
2022-09-26T11:02:05.418Z,26.40
2022-09-26T11:04:54.219Z,26.50
2022-09-26T11:07:28.269Z,26.60
2022-09-26T11:10:06.829Z,26.70
2022-09-26T11:12:39.625Z,26.70
2022-09-26T11:15:10.083Z,26.80
2022-09-26T11:17:44.904Z,26.80
2022-09-26T11:20:36.775Z,26.90
2022-09-26T11:23:12.497Z,27.00
2022-09-26T11:26:16.996Z,27.00
2022-09-26T11:28:55.577Z,27.10
2022-09-26T11:31:44.039Z,27.10
2022-09-26T11:34:36.254Z,27.10
2022-09-26T11:37:33.623Z,27.10
2022-09-26T11:40:10.114Z,27.10
2022-09-26T11:42:46.049Z,27.10
2022-09-26T11:45:39.371Z,27.10
2022-09-26T11:51:08.207Z,27.10
2022-09-26T11:54:19.572Z,27.10
2022-09-26T11:57:42.397Z,27.30
2022-09-26T12:00:24.669Z,27.30
2022-09-26T12:03:30.413Z,27.30
2022-09-26T12:06:27.509Z,27.40
2022-09-26T12:09:45.262Z,27.40
2022-09-26T12:12:41.468Z,27.40
2022-09-26T12:15:30.773Z,27.40
2022-09-26T12:18:15.790Z,27.40
2022-09-26T12:21:24.064Z,27.30
2022-09-26T12:24:24.509Z,27.30
2022-09-26T12:27:18.396Z,27.30
2022-09-26T12:30:19.720Z,27.20
2022-09-26T12:33:14.729Z,27.20
2022-09-26T12:36:06.131Z,27.10
2022-09-26T12:38:53.126Z,27.10
2022-09-26T12:41:59.199Z,27.10
2022-09-26T12:44:53.563Z,27.00
2022-09-26T12:47:55.955Z,27.00
2022-09-26T12:50:41.971Z,27.00
2022-09-26T12:53:43.485Z,26.90
2022-09-26T12:56:26.741Z,26.90
2022-09-26T12:59:38.850Z,26.80
2022-09-26T13:02:42.977Z,26.80
2022-09-26T13:05:47.565Z,26.70
2022-09-26T13:08:41.471Z,26.60
2022-09-26T13:11:34.044Z,26.70
2022-09-26T13:14:19.491Z,26.70
2022-09-26T13:17:24.514Z,26.70
2022-09-26T13:20:14.632Z,26.60
2022-09-26T13:23:30.079Z,26.60
2022-09-26T13:26:06.326Z,26.60
2022-09-26T13:29:06.474Z,26.60
2022-09-26T13:31:58.882Z,26.60
2022-09-26T13:34:34.918Z,26.60
2022-09-26T13:37:05.044Z,26.50
2022-09-26T13:39:59.683Z,26.50
2022-09-26T13:42:47.358Z,28.80
2022-09-26T13:45:44.233Z,26.60
2022-09-26T13:48:24.149Z,26.60
2022-09-26T13:50:59.268Z,26.50
2022-09-26T13:53:38.512Z,26.50
2022-09-26T13:56:36.251Z,26.50
2022-09-26T13:59:34.642Z,26.50
2022-09-26T14:02:28.446Z,26.50
2022-09-26T14:05:01.221Z,26.50
2022-09-26T14:07:58.559Z,26.50
2022-09-26T14:10:36.083Z,26.50
2022-09-26T14:13:21.746Z,26.40
2022-09-26T14:15:48.788Z,26.40
2022-09-26T14:19:07.140Z,26.40
2022-09-26T14:22:09.309Z,26.40
2022-09-26T14:24:43.239Z,26.40
2022-09-26T14:27:10.333Z,26.40
2022-09-26T14:29:40.743Z,26.40
2022-09-26T14:32:23.298Z,26.40
2022-09-26T14:35:34.341Z,26.40
2022-09-26T14:38:09.900Z,26.40
2022-09-26T14:40:38.008Z,26.30
2022-09-26T14:43:19.122Z,26.30
2022-09-26T14:46:02.609Z,26.30
2022-09-26T14:48:38.704Z,26.30
2022-09-26T14:51:11.479Z,26.30
2022-09-26T14:53:50.539Z,26.30
2022-09-26T14:56:40.026Z,26.30
2022-09-26T14:59:27.670Z,26.30
2022-09-26T15:02:21.299Z,26.30
2022-09-26T15:05:10.005Z,26.30
2022-09-26T15:07:46.014Z,26.30
2022-09-26T15:10:28.130Z,26.30
2022-09-26T15:13:03.279Z,26.30
2022-09-26T15:15:55.436Z,26.30
2022-09-26T15:18:28.282Z,26.30
2022-09-26T15:21:28.180Z,26.30
2022-09-26T15:23:57.846Z,26.30
2022-09-26T15:26:35.874Z,26.30
2022-09-26T15:29:06.825Z,26.30
2022-09-26T15:31:41.725Z,26.30
2022-09-26T15:34:42.861Z,26.30
2022-09-26T15:37:20.033Z,26.30
2022-09-26T15:39:47.447Z,26.30
2022-09-26T15:42:48.242Z,26.30
2022-09-26T15:45:30.587Z,26.30
2022-09-26T15:48:20.306Z,26.30
2022-09-26T15:51:13.496Z,26.30
2022-09-26T15:54:06.040Z,26.30
2022-09-26T15:56:44.707Z,26.30
2022-09-26T15:59:49.903Z,26.30
2022-09-26T16:02:28.746Z,26.30
2022-09-26T16:04:56.052Z,26.30
2022-09-26T16:07:30.729Z,26.30
2022-09-26T16:10:06.275Z,26.30
2022-09-26T16:12:39.877Z,26.30
2022-09-26T16:15:28.507Z,26.40
2022-09-26T16:17:58.088Z,26.30
2022-09-26T16:20:30.787Z,26.30
2022-09-26T16:23:04.153Z,26.30
2022-09-26T16:25:48.024Z,26.30
2022-09-26T16:28:18.172Z,26.30
2022-09-26T16:30:55.049Z,26.30
2022-09-26T16:33:30.196Z,26.30
2022-09-26T16:36:24.800Z,26.30
2022-09-26T16:39:03.441Z,26.30
2022-09-26T16:42:02.315Z,26.30
2022-09-26T16:44:41.109Z,26.30
2022-09-26T16:47:42.877Z,26.30
2022-09-26T16:50:34.070Z,26.30
2022-09-26T16:53:06.393Z,26.20
2022-09-26T16:55:36.389Z,26.20
2022-09-26T16:58:08.402Z,26.20
2022-09-26T17:00:54.373Z,26.20
2022-09-26T17:03:32.235Z,26.20
2022-09-26T17:06:00.820Z,26.20
2022-09-26T17:08:28.662Z,26.20
2022-09-26T17:11:02.792Z,26.20
2022-09-26T17:13:33.855Z,26.20
2022-09-26T17:16:03.520Z,26.10
2022-09-26T17:18:33.030Z,26.10
2022-09-26T17:21:00.854Z,26.10
2022-09-26T17:23:39.807Z,26.20
2022-09-26T17:26:12.049Z,26.00
2022-09-26T17:28:42.911Z,26.10
2022-09-26T17:31:19.471Z,26.10
2022-09-26T17:33:51.406Z,26.10
2022-09-26T17:36:29.658Z,26.10
2022-09-26T17:39:01.091Z,26.10
2022-09-26T17:41:29.778Z,26.00
2022-09-26T17:44:00.367Z,26.00
2022-09-26T17:46:28.260Z,26.00
2022-09-26T17:48:56.027Z,26.00
2022-09-26T17:51:24.084Z,26.00
2022-09-26T17:53:52.718Z,26.00
2022-09-26T17:56:20.604Z,26.00
2022-09-26T17:58:49.595Z,26.00
2022-09-26T18:01:30.183Z,25.90
2022-09-26T18:04:06.332Z,25.90
2022-09-26T18:06:33.970Z,25.90
2022-09-26T18:09:10.282Z,25.10
2022-09-26T18:11:38.987Z,25.90
2022-09-26T18:14:08.221Z,25.90
2022-09-26T18:16:35.293Z,25.80
2022-09-26T18:19:07.023Z,25.80
2022-09-26T18:21:35.037Z,25.80
2022-09-26T18:24:06.683Z,25.80
2022-09-26T18:26:42.212Z,25.80
2022-09-26T18:29:15.297Z,25.80
2022-09-26T18:31:45.861Z,25.80
2022-09-26T18:34:18.636Z,25.80
2022-09-26T18:36:48.084Z,25.80
2022-09-26T18:39:15.273Z,25.80
2022-09-26T18:41:42.483Z,25.80
2022-09-26T18:44:18.154Z,25.70
2022-09-26T18:46:49.185Z,25.70
2022-09-26T18:49:19.638Z,25.70
2022-09-26T18:51:47.227Z,25.70
2022-09-26T18:54:17.360Z,25.60
2022-09-26T18:57:04.143Z,25.60
2022-09-26T18:59:31.191Z,25.60
2022-09-26T19:02:01.267Z,25.60
2022-09-26T19:04:30.718Z,25.60
2022-09-26T19:07:07.308Z,25.60
2022-09-26T19:09:42.781Z,25.60
2022-09-26T19:12:32.679Z,25.50
2022-09-26T19:15:42.125Z,25.60
2022-09-26T19:18:39.325Z,25.50
2022-09-26T19:21:40.756Z,25.60
2022-09-26T19:24:28.944Z,25.50
2022-09-26T19:27:32.791Z,25.50
2022-09-26T19:30:33.817Z,25.50
2022-09-26T19:33:17.512Z,25.50
2022-09-26T19:35:47.634Z,25.50
2022-09-26T19:38:25.208Z,25.50
2022-09-26T19:40:56.675Z,25.50
2022-09-26T19:43:35.105Z,25.50
2022-09-26T19:46:03.465Z,25.40
2022-09-26T19:48:36.363Z,25.40
2022-09-26T19:51:06.859Z,25.40
2022-09-26T19:53:35.996Z,25.40
2022-09-26T19:56:02.968Z,25.40
2022-09-26T19:58:30.070Z,25.40
2022-09-26T20:01:02.546Z,25.40
2022-09-26T20:03:34.867Z,25.40
2022-09-26T20:06:02.255Z,25.40
2022-09-26T20:08:29.384Z,25.40
2022-09-26T20:10:56.800Z,25.40
2022-09-26T20:13:23.924Z,25.40
2022-09-26T20:15:51.205Z,25.30
2022-09-26T20:18:22.185Z,25.30
2022-09-26T20:20:55.831Z,25.30
2022-09-26T20:23:27.257Z,25.30
2022-09-26T20:25:55.732Z,25.30
2022-09-26T20:28:23.202Z,25.40
2022-09-26T20:30:54.436Z,25.30
2022-09-26T20:33:23.967Z,25.40
2022-09-26T20:36:04.365Z,25.40
2022-09-26T20:38:46.118Z,25.30
2022-09-26T20:41:25.321Z,25.40
2022-09-26T20:43:58.603Z,25.40
2022-09-26T20:46:26.500Z,25.30
2022-09-26T20:48:53.631Z,25.30
2022-09-26T20:51:27.907Z,25.30
2022-09-26T20:53:55.734Z,25.50
2022-09-26T20:56:22.784Z,25.30
2022-09-26T20:58:50.278Z,25.30
2022-09-26T21:01:21.092Z,25.30
2022-09-26T21:03:52.239Z,25.30
2022-09-26T21:06:23.454Z,25.30
2022-09-26T21:08:50.409Z,25.30
2022-09-26T21:11:20.762Z,25.30
2022-09-26T21:13:47.861Z,25.30
2022-09-26T21:16:18.636Z,25.30
2022-09-26T21:18:49.400Z,25.30
2022-09-26T21:21:34.920Z,25.30
2022-09-26T21:24:24.783Z,25.30
2022-09-26T21:27:01.093Z,25.30
2022-09-26T21:29:33.993Z,25.30
2022-09-26T21:32:07.198Z,25.30
2022-09-26T21:37:41.364Z,25.30
2022-09-26T21:40:19.042Z,25.30
2022-09-26T21:42:56.081Z,25.30
2022-09-26T21:48:28.789Z,25.30
2022-09-26T21:51:05.196Z,25.30
2022-09-26T21:54:10.830Z,25.30
2022-09-26T21:56:52.331Z,25.30
2022-09-26T21:59:56.245Z,25.30
2022-09-26T22:05:09.659Z,25.30
2022-09-26T22:07:39.664Z,25.20
2022-09-26T22:10:08.117Z,25.20
2022-09-26T22:12:39.292Z,25.20
2022-09-26T22:15:07.143Z,25.20
2022-09-26T22:17:34.390Z,25.20
2022-09-26T22:20:01.893Z,25.20
2022-09-26T22:22:28.908Z,25.20
2022-09-26T22:24:58.180Z,25.20
2022-09-26T22:27:25.102Z,25.20
2022-09-26T22:29:52.235Z,25.20
2022-09-26T22:32:19.153Z,25.20
2022-09-26T22:34:46.057Z,25.20
2022-09-26T22:37:13.107Z,25.20
2022-09-26T22:39:40.120Z,24.90
2022-09-26T22:42:07.545Z,25.10
2022-09-26T22:44:35.915Z,25.10
2022-09-26T22:47:03.126Z,25.10
2022-09-26T22:49:30.051Z,25.10
2022-09-26T22:51:56.931Z,25.10
2022-09-26T22:54:24.137Z,25.10
2022-09-26T22:56:51.204Z,25.10
2022-09-26T22:59:18.276Z,25.10
2022-09-26T23:01:45.271Z,25.20
2022-09-26T23:04:12.294Z,25.10
2022-09-26T23:06:39.235Z,25.10
2022-09-26T23:09:06.204Z,25.10
2022-09-26T23:11:33.364Z,25.10
2022-09-26T23:14:00.310Z,25.10
2022-09-26T23:16:28.606Z,25.10
2022-09-26T23:18:57.278Z,25.10
2022-09-26T23:21:27.344Z,25.10
2022-09-26T23:23:58.069Z,25.10
2022-09-26T23:26:31.172Z,25.10
2022-09-26T23:29:00.228Z,25.10
2022-09-26T23:31:28.810Z,25.10
2022-09-26T23:33:57.430Z,25.00
2022-09-26T23:36:25.350Z,25.00
2022-09-26T23:38:52.742Z,25.00
2022-09-26T23:41:19.759Z,25.00
2022-09-26T23:43:46.746Z,25.10
2022-09-26T23:46:14.356Z,25.10
2022-09-26T23:48:42.208Z,25.00
2022-09-26T23:51:10.153Z,25.10
2022-09-26T23:53:37.232Z,25.00
2022-09-26T23:56:10.590Z,25.00
2022-09-26T23:58:38.405Z,25.10
